Airport Name : Cochin Intl

Other Name : Cochin Intl

ICAO : VOCI

IATA : COK

FAA :

Latitude : 10.151994

Longitude : 76.401906

Country : India

Local Date and Time : 29 Nov 2020 22:07

 

TAF (Terminal Aerodrome Forecast)

TAF VOCI 291400Z 2915/2924 05005KT 4000 HZ SCT015 BKN080 BECMG 2918/2919 00000KT 2500 BR RA SCT015 SCT080

 

METAR (METeorological Aerodrome Report)

VOCI 291630Z 13002KT 4000 BR SCT015 SCT080 27/23 Q1012 NOSIG

VOCI 291600Z 15002KT 4000 BR SCT015 SCT080 27/23 Q1011 NOSIG

VOCI 291530Z 00000KT 4000 HZ SCT015 BKN080 28/23 Q1011 NOSIG

VOCI 291500Z 00000KT 4000 HZ SCT015 BKN080 28/23 Q1011 NOSIG

VOCI 291430Z 00000KT 4000 HZ SCT015 BKN080 29/23 Q1010 NOSIG

VOCI 291400Z 30005KT 4000 HZ SCT015 BKN080 29/22 Q1010 NOSIG

VOCI 291330Z 02005KT 4000 HZ SCT015 BKN080 30/22 Q1009 NOSIG

VOCI 291300Z 04003KT 5000 HZ SCT015 BKN080 30/22 Q1009 TEMPO 4000 HZ

To Charter a Jet Click here.